Time;durP1;ratioP1;P1;durP2;ratioP2;P2;SDS_P1;SDS_P2;PMS_P1;PMS_P2;Temp;Humidity;BMP_temperature;BMP_pressure;BME280_temperature;BME280_humidity;BME280_pressure;Samples;Min_cycle;Max_cycle;Signal;HPM_P1;HPM_P2
2021/08/23 00:01:59;;;;;;;4.33;3.47;;;19.30;1.00;;;;;;5053285;28;20195;-58
2021/08/23 00:04:24;;;;;;;4.50;3.20;;;19.30;1.00;;;;;;5047536;28;20214;-60
2021/08/23 00:06:50;;;;;;;3.60;3.23;;;19.40;1.00;;;;;;5048210;28;20224;-58
2021/08/23 00:09:19;;;;;;;5.00;4.00;;;19.40;1.00;;;;;;5047574;28;20189;-58
2021/08/23 00:11:45;;;;;;;4.03;3.63;;;19.30;1.00;;;;;;5060177;28;20444;-58
2021/08/23 00:14:10;;;;;;;3.90;3.10;;;19.40;1.00;;;;;;5053718;28;20452;-59
2021/08/23 00:16:36;;;;;;;5.07;3.10;;;19.40;1.00;;;;;;5049641;28;20206;-58
2021/08/23 00:19:01;;;;;;;3.40;3.10;;;19.30;1.00;;;;;;5048581;28;20189;-59
2021/08/23 00:21:28;;;;;;;3.60;3.20;;;19.30;1.00;;;;;;5050065;28;20668;-58
2021/08/23 00:24:05;;;;;;;5.00;3.23;;;19.30;1.00;;;;;;5055369;28;20640;-59
2021/08/23 00:26:31;;;;;;;3.43;3.13;;;19.30;1.00;;;;;;5053016;28;20455;-60
2021/08/23 00:28:56;;;;;;;3.20;2.80;;;19.40;1.00;;;;;;5065229;28;20480;-59
2021/08/23 00:31:22;;;;;;;4.17;3.70;;;19.40;1.00;;;;;;5057016;28;20256;-59
2021/08/23 00:33:47;;;;;;;4.47;3.50;;;19.50;1.00;;;;;;5053890;28;20232;-58
2021/08/23 00:36:13;;;;;;;3.13;2.73;;;19.50;1.00;;;;;;5062331;28;20243;-58
2021/08/23 00:38:38;;;;;;;3.50;3.20;;;19.50;1.00;;;;;;5050184;28;20637;-59
2021/08/23 00:41:04;;;;;;;3.80;3.20;;;19.50;1.00;;;;;;5057134;28;20188;-58
2021/08/23 00:43:30;;;;;;;4.53;2.90;;;19.50;1.00;;;;;;5052349;28;20216;-60
2021/08/23 00:45:57;;;;;;;4.07;3.67;;;19.60;1.00;;;;;;5056128;28;20661;-58
2021/08/23 00:48:23;;;;;;;3.83;3.40;;;19.60;1.00;;;;;;5069580;28;20441;-58
2021/08/23 00:50:49;;;;;;;5.30;4.10;;;19.80;1.00;;;;;;5057567;28;20564;-58
2021/08/23 00:53:15;;;;;;;7.33;4.40;;;19.60;1.00;;;;;;5052188;28;20567;-57
2021/08/23 00:55:42;;;;;;;6.83;4.20;;;19.50;1.00;;;;;;5053110;28;20458;-58
2021/08/23 00:58:07;;;;;;;4.37;3.97;;;19.50;1.00;;;;;;5051514;28;20911;-59
2021/08/23 01:00:36;;;;;;;5.50;4.90;;;19.40;1.00;;;;;;5053213;28;20498;-59
2021/08/23 01:03:12;;;;;;;4.33;3.83;;;19.40;1.00;;;;;;5063502;28;20280;-60
2021/08/23 01:05:39;;;;;;;4.67;4.27;;;19.40;1.00;;;;;;5055984;28;20441;-59
2021/08/23 01:08:21;;;;;;;5.40;5.00;;;19.50;1.00;;;;;;5052278;28;20500;-58
2021/08/23 01:10:50;;;;;;;5.87;5.00;;;19.40;1.00;;;;;;5052979;28;20472;-58
2021/08/23 01:13:15;;;;;;;4.97;4.47;;;19.20;1.00;;;;;;5051853;28;20446;-60
2021/08/23 01:15:41;;;;;;;6.33;4.70;;;19.20;1.00;;;;;;5053607;28;20448;-58
2021/08/23 01:18:07;;;;;;;6.60;4.60;;;19.10;1.00;;;;;;5055744;28;20181;-58
2021/08/23 01:20:39;;;;;;;4.63;4.23;;;18.90;1.00;;;;;;5056505;28;20663;-60
2021/08/23 01:23:07;;;;;;;5.10;4.50;;;18.90;1.00;;;;;;5058889;28;20183;-58
2021/08/23 01:25:34;;;;;;;5.20;4.70;;;18.90;1.00;;;;;;5050432;28;20979;-58
2021/08/23 01:28:11;;;;;;;5.07;4.67;;;18.80;1.00;;;;;;5055658;28;20912;-56
2021/08/23 01:31:11;;;;;;;5.20;4.53;;;18.90;1.00;;;;;;5054735;28;20485;-58
2021/08/23 01:33:37;;;;;;;5.03;4.43;;;18.90;1.00;;;;;;5051073;28;21031;-57
2021/08/23 01:36:03;;;;;;;5.10;4.60;;;18.90;1.00;;;;;;5053567;28;20478;-59
2021/08/23 01:38:29;;;;;;;5.73;3.70;;;18.90;1.00;;;;;;5060475;28;20183;-59
2021/08/23 01:41:13;;;;;;;4.03;3.63;;;19.00;1.00;;;;;;5054660;28;20446;-61
2021/08/23 01:43:38;;;;;;;4.23;3.83;;;19.10;1.00;;;;;;5058423;28;20303;-58
2021/08/23 01:46:05;;;;;;;3.97;3.60;;;19.20;1.00;;;;;;5063063;28;21013;-58
2021/08/23 01:48:30;;;;;;;4.70;4.13;;;19.30;1.00;;;;;;5055826;28;20650;-60
2021/08/23 01:50:56;;;;;;;4.20;3.80;;;19.30;1.00;;;;;;5058770;28;20503;-58
2021/08/23 01:53:22;;;;;;;4.30;3.67;;;19.70;1.00;;;;;;5048123;28;20322;-57
2021/08/23 01:55:48;;;;;;;6.23;4.30;;;19.20;1.00;;;;;;5049930;28;20225;-58
2021/08/23 01:58:14;;;;;;;6.73;4.33;;;19.30;1.00;;;;;;5052808;28;20454;-60
2021/08/23 02:00:40;;;;;;;4.63;3.90;;;22.30;1.00;;;;;;5051102;28;20321;-59
2021/08/23 02:03:05;;;;;;;5.53;3.80;;;19.30;1.00;;;;;;5058864;28;20906;-59
2021/08/23 02:05:31;;;;;;;4.87;4.37;;;19.40;1.00;;;;;;5049808;28;20238;-58
2021/08/23 02:07:57;;;;;;;6.50;4.63;;;19.30;1.00;;;;;;5055756;28;20967;-58
2021/08/23 02:10:23;;;;;;;5.57;4.70;;;19.30;1.00;;;;;;5046504;28;20194;-60
2021/08/23 02:12:48;;;;;;;5.80;5.13;;;19.20;1.00;;;;;;5051880;28;20454;-59
2021/08/23 02:15:14;;;;;;;7.30;5.47;;;19.20;1.00;;;;;;5058935;28;20234;-59
2021/08/23 02:17:39;;;;;;;6.03;5.20;;;19.20;1.00;;;;;;5048894;28;20318;-57
2021/08/23 02:20:07;;;;;;;6.30;5.70;;;19.10;1.00;;;;;;5054674;28;20235;-58
2021/08/23 02:22:33;;;;;;;5.63;5.10;;;19.20;1.00;;;;;;5049591;28;20187;-58
2021/08/23 02:24:58;;;;;;;6.03;5.43;;;19.10;1.00;;;;;;5060370;28;20764;-59
2021/08/23 02:27:24;;;;;;;7.10;6.40;;;19.10;1.00;;;;;;5051642;28;20202;-58
2021/08/23 02:29:49;;;;;;;6.37;5.80;;;19.00;1.00;;;;;;5051387;28;20585;-58
2021/08/23 02:32:15;;;;;;;9.03;7.10;;;19.10;1.00;;;;;;5051170;28;20556;-59
2021/08/23 02:34:40;;;;;;;8.20;7.27;;;19.10;1.00;;;;;;5047829;28;20305;-58
2021/08/23 02:37:06;;;;;;;8.27;6.90;;;19.00;1.00;;;;;;5051174;28;20577;-58
2021/08/23 02:39:31;;;;;;;8.37;7.57;;;19.00;1.00;;;;;;5052277;28;20189;-58
2021/08/23 02:41:57;;;;;;;8.20;7.10;;;18.90;1.00;;;;;;5056663;28;20275;-58
2021/08/23 02:44:23;;;;;;;8.30;7.50;;;19.00;1.00;;;;;;5049376;28;20188;-58
2021/08/23 02:46:49;;;;;;;8.87;7.07;;;18.90;1.00;;;;;;5057206;28;20207;-58
2021/08/23 02:49:16;;;;;;;8.60;7.80;;;19.00;1.00;;;;;;5049793;28;20252;-57
2021/08/23 02:51:43;;;;;;;7.37;6.67;;;19.00;1.00;;;;;;5049000;28;20819;-58
2021/08/23 02:54:09;;;;;;;6.83;6.00;;;18.90;1.00;;;;;;5050676;28;20479;-59
2021/08/23 02:56:35;;;;;;;8.43;6.83;;;18.90;1.00;;;;;;5052235;28;20964;-58
2021/08/23 02:59:00;;;;;;;8.10;6.80;;;18.90;1.00;;;;;;5053259;28;20187;-58
2021/08/23 03:01:26;;;;;;;7.13;6.43;;;19.00;1.00;;;;;;5050020;28;20184;-59
2021/08/23 03:03:51;;;;;;;6.27;5.67;;;19.00;1.00;;;;;;5048268;28;20183;-58
2021/08/23 03:06:17;;;;;;;6.40;5.80;;;19.00;1.00;;;;;;5060217;28;20688;-58
2021/08/23 03:08:42;;;;;;;6.07;5.57;;;19.10;1.00;;;;;;5055490;28;20320;-60
2021/08/23 03:11:10;;;;;;;6.00;5.50;;;19.10;1.00;;;;;;5050367;28;20187;-60
2021/08/23 03:13:36;;;;;;;7.60;5.90;;;19.10;1.00;;;;;;5055895;28;20195;-59
2021/08/23 03:16:03;;;;;;;6.80;6.10;;;19.20;1.00;;;;;;5049341;28;20470;-59
2021/08/23 03:18:28;;;;;;;6.27;4.83;;;19.10;1.00;;;;;;5060915;28;20434;-59
2021/08/23 03:20:54;;;;;;;8.40;5.60;;;19.10;1.00;;;;;;5054264;28;20980;-59
2021/08/23 03:23:19;;;;;;;4.87;4.47;;;19.20;1.00;;;;;;5051876;28;20185;-59
2021/08/23 03:25:45;;;;;;;5.60;5.10;;;19.20;1.00;;;;;;5048899;28;20192;-58
2021/08/23 03:28:10;;;;;;;6.00;5.50;;;19.20;1.00;;;;;;5051762;28;20183;-59
2021/08/23 03:30:36;;;;;;;6.07;5.17;;;19.10;1.00;;;;;;5065653;28;20194;-59
2021/08/23 03:33:01;;;;;;;5.67;5.17;;;19.10;1.00;;;;;;5056023;28;20195;-59
2021/08/23 03:35:27;;;;;;;4.90;4.47;;;19.00;1.00;;;;;;5052950;28;20227;-58
2021/08/23 03:37:53;;;;;;;5.13;4.73;;;19.00;1.00;;;;;;5054626;28;20556;-58
2021/08/23 03:40:18;;;;;;;5.40;4.90;;;19.00;1.00;;;;;;5060343;28;20350;-61
2021/08/23 03:42:44;;;;;;;5.87;5.10;;;19.10;1.00;;;;;;5062711;28;20184;-58
2021/08/23 03:45:09;;;;;;;6.90;4.90;;;19.10;1.00;;;;;;5050526;28;20257;-59
2021/08/23 03:47:35;;;;;;;5.00;4.60;;;19.10;1.00;;;;;;5055301;28;20266;-58
2021/08/23 03:50:00;;;;;;;4.10;3.80;;;19.30;1.00;;;;;;5055058;28;20202;-58
2021/08/23 03:52:26;;;;;;;4.57;4.17;;;19.40;1.00;;;;;;5049506;28;20760;-59
2021/08/23 03:54:51;;;;;;;5.33;4.20;;;19.30;1.00;;;;;;5054271;28;20192;-59
2021/08/23 03:57:17;;;;;;;4.63;4.23;;;19.20;1.00;;;;;;5049737;28;20269;-60
2021/08/23 03:59:42;;;;;;;4.30;3.97;;;19.10;1.00;;;;;;5049895;28;20242;-57
2021/08/23 04:02:08;;;;;;;5.07;3.70;;;19.10;1.00;;;;;;5049169;28;20252;-58
2021/08/23 04:04:33;;;;;;;5.10;3.87;;;19.10;1.00;;;;;;5049060;28;20187;-59
2021/08/23 04:06:59;;;;;;;3.70;3.40;;;19.10;1.00;;;;;;5056627;28;20262;-58
2021/08/23 04:09:24;;;;;;;4.63;4.20;;;19.10;1.00;;;;;;5049428;28;20215;-60
2021/08/23 04:11:50;;;;;;;3.77;3.47;;;19.10;1.00;;;;;;5048020;28;20209;-59
2021/08/23 04:14:15;;;;;;;4.17;3.63;;;19.20;1.00;;;;;;5049358;28;20195;-59
2021/08/23 04:16:41;;;;;;;4.40;4.03;;;19.10;1.00;;;;;;5049217;28;20662;-59
2021/08/23 04:19:06;;;;;;;3.70;3.40;;;19.10;1.00;;;;;;5049151;28;20269;-58
2021/08/23 04:21:32;;;;;;;3.23;2.93;;;19.00;1.00;;;;;;5049152;28;20276;-59
2021/08/23 04:23:57;;;;;;;3.40;3.10;;;19.10;1.00;;;;;;5049042;28;20182;-60
2021/08/23 04:26:23;;;;;;;3.20;2.90;;;19.20;1.00;;;;;;5049190;28;20199;-59
2021/08/23 04:28:48;;;;;;;3.00;2.80;;;19.10;1.00;;;;;;5052107;28;20191;-59
2021/08/23 04:31:14;;;;;;;2.60;2.40;;;19.20;1.00;;;;;;5048976;28;20188;-58
2021/08/23 04:33:42;;;;;;;3.00;2.47;;;19.20;1.00;;;;;;5048398;28;20295;-60
2021/08/23 04:36:08;;;;;;;2.87;2.30;;;19.20;1.00;;;;;;5051364;28;20676;-58
2021/08/23 04:38:34;;;;;;;3.43;2.83;;;19.20;1.00;;;;;;5047927;28;20447;-59
2021/08/23 04:40:59;;;;;;;3.83;3.53;;;19.20;1.00;;;;;;5049495;28;20189;-57
2021/08/23 04:43:25;;;;;;;4.60;2.50;;;19.20;1.00;;;;;;5048981;28;20204;-56
2021/08/23 04:45:50;;;;;;;2.77;2.57;;;19.50;1.00;;;;;;5048036;28;20217;-59
2021/08/23 04:48:16;;;;;;;2.70;2.50;;;19.40;1.00;;;;;;5048724;28;20637;-57
2021/08/23 04:50:41;;;;;;;2.27;2.07;;;19.30;1.00;;;;;;5051453;28;20211;-56
2021/08/23 04:53:07;;;;;;;3.20;2.63;;;19.40;1.00;;;;;;5056065;28;20184;-56
2021/08/23 04:55:32;;;;;;;3.23;2.47;;;19.30;1.00;;;;;;5048857;28;20187;-57
2021/08/23 04:57:59;;;;;;;5.87;2.30;;;19.30;1.00;;;;;;5047520;28;20220;-56
2021/08/23 05:00:24;;;;;;;2.90;2.47;;;19.40;1.00;;;;;;5048331;28;20711;-57
2021/08/23 05:02:50;;;;;;;3.90;2.67;;;19.40;1.00;;;;;;5047107;28;20442;-58
2021/08/23 05:05:16;;;;;;;4.67;2.87;;;19.20;1.00;;;;;;5047643;28;20184;-58
2021/08/23 05:07:41;;;;;;;2.50;2.30;;;19.30;1.00;;;;;;5052168;28;20183;-56
2021/08/23 05:10:07;;;;;;;2.80;2.53;;;19.40;1.00;;;;;;5052831;28;20194;-57
2021/08/23 05:12:33;;;;;;;3.47;2.30;;;19.40;1.00;;;;;;5054773;28;20177;-56
2021/08/23 05:14:58;;;;;;;3.23;2.40;;;19.40;1.00;;;;;;5051236;28;20993;-57
2021/08/23 05:17:25;;;;;;;4.80;1.97;;;19.20;1.00;;;;;;5052282;28;20310;-56
2021/08/23 05:19:51;;;;;;;2.50;1.70;;;19.20;1.00;;;;;;5052355;28;20183;-56
2021/08/23 05:22:17;;;;;;;2.53;2.27;;;19.20;1.00;;;;;;5051964;28;20447;-58
2021/08/23 05:24:43;;;;;;;1.80;1.70;;;19.30;1.00;;;;;;5052587;28;20434;-55
2021/08/23 05:27:09;;;;;;;3.07;1.93;;;19.20;1.00;;;;;;5051691;28;20211;-58
2021/08/23 05:29:34;;;;;;;3.70;2.43;;;19.20;1.00;;;;;;5052579;28;20462;-56
2021/08/23 05:32:00;;;;;;;3.00;2.70;;;19.30;1.00;;;;;;5050790;28;20951;-56
2021/08/23 05:34:25;;;;;;;2.93;2.60;;;19.30;1.00;;;;;;5051976;28;20220;-56
2021/08/23 05:36:51;;;;;;;2.63;2.40;;;;;;;;;;5052530;28;20207;-56
2021/08/23 05:39:17;;;;;;;2.83;2.50;;;19.40;1.00;;;;;;5050816;28;20188;-57
2021/08/23 05:41:42;;;;;;;3.13;2.20;;;19.40;1.00;;;;;;5051980;28;20454;-57
2021/08/23 05:44:08;;;;;;;2.30;2.10;;;19.30;1.00;;;;;;5052352;28;20240;-56
2021/08/23 05:46:33;;;;;;;3.10;2.30;;;19.40;1.00;;;;;;5051943;28;20191;-55
2021/08/23 05:48:59;;;;;;;2.57;2.00;;;19.50;1.00;;;;;;5051620;28;20664;-58
2021/08/23 05:51:24;;;;;;;2.50;2.20;;;19.40;1.00;;;;;;5049629;28;20184;-57
2021/08/23 05:53:50;;;;;;;3.40;2.00;;;19.40;1.00;;;;;;5051646;28;20202;-55
2021/08/23 05:56:16;;;;;;;3.50;2.20;;;19.50;1.00;;;;;;5050605;28;20602;-57
2021/08/23 05:58:41;;;;;;;3.03;2.33;;;19.70;1.00;;;;;;5051590;28;20580;-56
2021/08/23 06:01:07;;;;;;;3.60;2.30;;;19.60;1.00;;;;;;5051452;28;20476;-56
2021/08/23 06:03:33;;;;;;;3.73;2.40;;;20.90;1.00;;;;;;5051239;28;20665;-55
2021/08/23 06:06:08;;;;;;;3.43;2.53;;;19.70;1.00;;;;;;5051639;28;20191;-57
2021/08/23 06:08:35;;;;;;;3.57;3.27;;;19.70;1.00;;;;;;5050289;28;20541;-56
2021/08/23 06:11:01;;;;;;;4.20;2.90;;;19.70;1.00;;;;;;5051067;28;20506;-57
2021/08/23 06:13:27;;;;;;;3.23;2.57;;;19.80;1.00;;;;;;5050474;28;20425;-57
2021/08/23 06:15:54;;;;;;;4.03;2.90;;;19.80;1.00;;;;;;5051243;28;20446;-56
2021/08/23 06:18:21;;;;;;;4.60;2.67;;;19.90;1.00;;;;;;5050161;28;21035;-56
2021/08/23 06:20:46;;;;;;;2.93;2.40;;;19.90;1.00;;;;;;5050069;28;20533;-55
2021/08/23 06:23:12;;;;;;;3.10;2.80;;;19.80;1.00;;;;;;5054526;28;20519;-55
2021/08/23 06:25:38;;;;;;;2.47;2.27;;;19.80;1.00;;;;;;5050433;28;20221;-56
2021/08/23 06:28:03;;;;;;;3.20;2.90;;;19.80;1.00;;;;;;5053942;28;20179;-57
2021/08/23 06:30:29;;;;;;;2.50;2.30;;;19.60;1.00;;;;;;5050865;28;20267;-56
2021/08/23 06:32:54;;;;;;;2.97;2.60;;;19.70;1.00;;;;;;5050252;28;20179;-56
2021/08/23 06:35:20;;;;;;;2.10;1.77;;;19.70;1.00;;;;;;5051030;28;20258;-56
2021/08/23 06:37:46;;;;;;;3.57;1.80;;;19.70;1.00;;;;;;5050365;28;20246;-57
2021/08/23 06:40:11;;;;;;;3.57;2.53;;;19.80;1.00;;;;;;5051253;28;20190;-57
2021/08/23 06:42:38;;;;;;;1.50;1.40;;;19.80;1.00;;;;;;5051431;28;20187;-56
2021/08/23 06:45:05;;;;;;;2.30;1.43;;;19.90;1.00;;;;;;5051069;28;20195;-55
2021/08/23 06:47:31;;;;;;;1.20;1.00;;;20.00;1.00;;;;;;5050833;28;20820;-55
2021/08/23 06:49:56;;;;;;;1.13;1.03;;;20.00;1.00;;;;;;5050537;28;20947;-55
2021/08/23 06:52:22;;;;;;;0.90;0.80;;;19.90;1.00;;;;;;5047867;28;20558;-56
2021/08/23 06:54:47;;;;;;;1.00;0.90;;;19.70;1.00;;;;;;5050240;28;20277;-55
2021/08/23 06:57:13;;;;;;;1.80;0.77;;;19.40;1.00;;;;;;5057653;28;20673;-56
2021/08/23 06:59:38;;;;;;;0.93;0.77;;;19.10;1.00;;;;;;5050730;28;20189;-55
2021/08/23 07:02:04;;;;;;;1.10;0.80;;;19.00;1.00;;;;;;5049913;28;20199;-56
2021/08/23 07:04:29;;;;;;;1.00;0.87;;;18.90;1.00;;;;;;5057186;28;20186;-55
2021/08/23 07:06:55;;;;;;;1.53;1.00;;;18.90;1.00;;;;;;5059171;28;20807;-56
2021/08/23 07:09:20;;;;;;;1.33;1.17;;;19.00;1.00;;;;;;5050695;28;20210;-56
2021/08/23 07:11:46;;;;;;;2.70;0.80;;;19.10;1.00;;;;;;5050179;28;20188;-57
2021/08/23 07:14:12;;;;;;;1.77;1.20;;;19.40;1.00;;;;;;5050017;28;20192;-56
2021/08/23 07:16:37;;;;;;;1.40;0.77;;;19.70;1.00;;;;;;5049971;28;20215;-56
2021/08/23 07:19:03;;;;;;;1.37;1.20;;;20.10;1.00;;;;;;5049894;28;20197;-56
2021/08/23 07:21:29;;;;;;;2.10;1.30;;;20.20;1.00;;;;;;5055415;28;20207;-56
2021/08/23 07:23:54;;;;;;;1.23;1.00;;;20.50;1.00;;;;;;5049336;28;20181;-55
2021/08/23 07:26:20;;;;;;;0.83;0.77;;;20.60;1.00;;;;;;5048109;28;20184;-55
2021/08/23 07:28:45;;;;;;;4.70;1.10;;;20.80;1.00;;;;;;5049801;28;20184;-56
2021/08/23 07:31:11;;;;;;;1.70;1.17;;;21.00;1.00;;;;;;5049791;28;20272;-56
2021/08/23 07:33:36;;;;;;;1.67;1.20;;;21.10;1.00;;;;;;5049330;28;20278;-55
2021/08/23 07:36:02;;;;;;;1.33;1.00;;;21.30;1.00;;;;;;5054941;28;20677;-58
2021/08/23 07:38:28;;;;;;;0.97;0.80;;;21.50;1.00;;;;;;5050289;28;20198;-56
2021/08/23 07:40:53;;;;;;;1.73;1.50;;;21.70;1.00;;;;;;5049676;28;20188;-55
2021/08/23 07:43:19;;;;;;;0.80;0.80;;;21.80;1.00;;;;;;5049455;28;20217;-57
2021/08/23 07:45:45;;;;;;;1.20;1.00;;;21.80;1.00;;;;;;5048504;28;20195;-57
2021/08/23 07:48:10;;;;;;;1.33;1.20;;;21.60;1.00;;;;;;5049147;28;20304;-55
2021/08/23 07:50:36;;;;;;;3.70;1.13;;;21.70;1.00;;;;;;5052535;28;20417;-56
2021/08/23 07:53:03;;;;;;;1.67;1.10;;;21.80;1.00;;;;;;5055581;28;20538;-58
2021/08/23 07:55:29;;;;;;;1.23;1.00;;;21.80;1.00;;;;;;5049489;28;20176;-55
2021/08/23 07:57:54;;;;;;;1.63;1.03;;;21.60;1.00;;;;;;5049275;28;20467;-56
2021/08/23 08:00:22;;;;;;;1.60;1.00;;;21.50;1.00;;;;;;5052899;28;20622;-56
2021/08/23 08:02:48;;;;;;;1.70;1.60;;;21.30;1.00;;;;;;5049471;28;20517;-55
2021/08/23 08:05:14;;;;;;;1.63;1.43;;;21.20;1.00;;;;;;5049044;28;20810;-56
2021/08/23 08:07:41;;;;;;;1.63;1.53;;;21.00;1.00;;;;;;5048056;28;20514;-56
2021/08/23 08:10:08;;;;;;;1.97;1.80;;;20.80;1.00;;;;;;5049245;28;20204;-56
2021/08/23 08:12:34;;;;;;;2.53;2.07;;;20.70;1.00;;;;;;5049318;28;20444;-58
2021/08/23 08:15:00;;;;;;;2.47;2.27;;;20.50;1.00;;;;;;5049458;28;20428;-57
2021/08/23 08:17:26;;;;;;;3.40;2.47;;;20.60;1.00;;;;;;5050492;28;20459;-56
2021/08/23 08:19:52;;;;;;;6.13;3.40;;;20.60;1.00;;;;;;5048701;28;20178;-55
2021/08/23 08:22:18;;;;;;;4.17;3.87;;;20.70;1.00;;;;;;5050052;28;20820;-56
2021/08/23 08:24:44;;;;;;;5.30;4.80;;;20.60;1.00;;;;;;5049969;28;20427;-55
2021/08/23 08:27:10;;;;;;;5.40;4.43;;;20.30;1.00;;;;;;5052286;28;20192;-56
2021/08/23 08:29:36;;;;;;;5.00;4.50;;;20.30;1.00;;;;;;5049670;28;20467;-56
2021/08/23 08:32:01;;;;;;;6.77;6.10;;;20.60;1.00;;;;;;5049641;28;20790;-57
2021/08/23 08:34:28;;;;;;;6.20;5.70;;;20.80;1.00;;;;;;5049003;28;20222;-56
2021/08/23 08:36:54;;;;;;;5.83;5.33;;;20.90;1.00;;;;;;5055053;28;20212;-56
2021/08/23 08:39:20;;;;;;;6.50;5.90;;;21.10;1.00;;;;;;5058456;28;20450;-56
2021/08/23 08:41:46;;;;;;;7.30;6.60;;;21.30;1.00;;;;;;5051498;28;20427;-56
2021/08/23 08:44:12;;;;;;;6.77;6.10;;;21.60;1.00;;;;;;5053285;28;20518;-55
2021/08/23 08:46:37;;;;;;;6.50;5.90;;;21.80;1.00;;;;;;5053015;28;20229;-56
2021/08/23 08:49:06;;;;;;;6.13;5.63;;;21.80;1.00;;;;;;5055881;28;20633;-55
2021/08/23 08:51:36;;;;;;;6.83;6.20;;;21.80;1.00;;;;;;5052434;28;20272;-56
2021/08/23 08:54:05;;;;;;;6.80;6.10;;;21.90;1.00;;;;;;5053546;28;20464;-56
2021/08/23 08:56:32;;;;;;;8.20;6.83;;;22.00;1.00;;;;;;5052930;28;20438;-55
2021/08/23 08:58:59;;;;;;;7.20;6.60;;;22.30;1.00;;;;;;5052151;28;20502;-56
2021/08/23 09:01:25;;;;;;;4.27;3.87;;;22.40;1.00;;;;;;5053103;28;20975;-57
2021/08/23 09:03:50;;;;;;;5.60;3.97;;;22.30;1.00;;;;;;5057326;28;20459;-56
2021/08/23 09:06:16;;;;;;;5.00;4.50;;;22.10;1.00;;;;;;5052694;28;20417;-56
2021/08/23 09:08:43;;;;;;;4.63;4.23;;;22.20;1.00;;;;;;5052148;28;20181;-56
2021/08/23 09:11:11;;;;;;;5.03;4.00;;;22.30;1.00;;;;;;5059482;28;20256;-55
2021/08/23 09:13:37;;;;;;;6.27;5.10;;;22.70;1.00;;;;;;5052625;28;20470;-56
2021/08/23 09:16:03;;;;;;;5.37;4.83;;;22.80;1.00;;;;;;5052515;28;20942;-58
2021/08/23 09:18:28;;;;;;;5.10;4.70;;;22.80;1.00;;;;;;5055708;28;20453;-55
2021/08/23 09:21:03;;;;;;;4.27;3.97;;;22.80;1.00;;;;;;5054092;28;20242;-58
2021/08/23 09:23:43;;;;;;;4.80;4.40;;;22.70;1.00;;;;;;5061354;28;20530;-59
2021/08/23 09:26:13;;;;;;;4.37;3.97;;;22.50;1.00;;;;;;5051029;28;20494;-56
2021/08/23 09:28:41;;;;;;;4.57;4.03;;;22.20;1.00;;;;;;5053473;28;20826;-57
2021/08/23 09:31:10;;;;;;;4.00;3.70;;;21.80;1.00;;;;;;5052372;28;20447;-56
2021/08/23 09:33:44;;;;;;;6.40;3.87;;;21.70;1.00;;;;;;5051773;28;20882;-56
2021/08/23 09:36:11;;;;;;;3.20;3.00;;;21.70;1.00;;;;;;5055155;28;20443;-55
2021/08/23 09:38:36;;;;;;;3.73;3.33;;;21.70;1.00;;;;;;5064425;28;20420;-56
2021/08/23 09:41:04;;;;;;;4.50;3.87;;;21.80;1.00;;;;;;5056049;28;20433;-57
2021/08/23 09:43:31;;;;;;;3.97;3.60;;;21.80;1.00;;;;;;5053072;28;20660;-56
2021/08/23 09:46:03;;;;;;;3.17;2.93;;;22.10;1.00;;;;;;5059962;28;20780;-56
2021/08/23 09:48:28;;;;;;;3.00;2.70;;;22.30;1.00;;;;;;5057547;28;21046;-56
2021/08/23 09:50:54;;;;;;;2.70;2.50;;;22.50;1.00;;;;;;5052288;28;20518;-57
2021/08/23 09:53:20;;;;;;;2.87;2.57;;;22.40;1.00;;;;;;5052721;28;20181;-58
2021/08/23 09:55:51;;;;;;;2.40;2.20;;;22.50;1.00;;;;;;5051752;28;20487;-56
2021/08/23 09:58:16;;;;;;;3.53;3.23;;;22.60;1.00;;;;;;5056707;28;20802;-56
2021/08/23 10:00:43;;;;;;;2.80;2.40;;;22.40;1.00;;;;;;5051881;28;20451;-55
2021/08/23 10:03:14;;;;;;;2.90;2.43;;;22.10;1.00;;;;;;5051848;28;20187;-57
2021/08/23 10:05:47;;;;;;;2.80;2.50;;;22.20;1.00;;;;;;5051640;28;20512;-57
2021/08/23 10:08:16;;;;;;;3.40;2.77;;;22.30;1.00;;;;;;5062723;28;20962;-55
2021/08/23 10:10:43;;;;;;;2.67;2.47;;;22.80;1.00;;;;;;5052382;28;20487;-57
2021/08/23 10:13:10;;;;;;;3.00;2.80;;;22.80;1.00;;;;;;5050396;28;20429;-57
2021/08/23 10:15:37;;;;;;;2.17;1.97;;;22.80;1.00;;;;;;5060670;28;20420;-55
2021/08/23 10:18:03;;;;;;;2.00;1.80;;;22.80;1.00;;;;;;5059147;28;20768;-57
2021/08/23 10:20:29;;;;;;;2.17;1.97;;;22.40;1.00;;;;;;5051153;28;20511;-56
2021/08/23 10:22:56;;;;;;;1.50;1.40;;;22.30;1.00;;;;;;5053208;28;20505;-57
2021/08/23 10:25:22;;;;;;;1.57;1.47;;;22.30;1.00;;;;;;5050627;28;20417;-56
2021/08/23 10:27:48;;;;;;;3.20;1.60;;;22.40;1.00;;;;;;5049032;28;20918;-56
2021/08/23 10:30:23;;;;;;;1.60;1.50;;;22.80;1.00;;;;;;5051537;28;20469;-56
2021/08/23 10:32:48;;;;;;;1.80;1.70;;;23.30;1.00;;;;;;5062114;28;20192;-56
2021/08/23 10:35:16;;;;;;;2.10;1.90;;;23.50;1.00;;;;;;5052680;28;20445;-55
2021/08/23 10:37:43;;;;;;;4.43;1.80;;;23.30;1.00;;;;;;5052329;28;20216;-58
2021/08/23 10:40:10;;;;;;;2.57;2.37;;;23.10;1.00;;;;;;5053953;28;20504;-57
2021/08/23 10:42:38;;;;;;;1.70;1.60;;;22.70;1.00;;;;;;5052737;28;20899;-57
2021/08/23 10:45:08;;;;;;;2.47;1.80;;;22.30;1.00;;;;;;5052431;28;20471;-57
2021/08/23 10:47:34;;;;;;;1.73;1.53;;;22.00;1.00;;;;;;5053071;28;20508;-57
2021/08/23 10:49:59;;;;;;;2.23;1.80;;;21.80;1.00;;;;;;5050867;28;20526;-55
2021/08/23 10:52:35;;;;;;;2.23;2.03;;;21.70;1.00;;;;;;5051207;28;20185;-56
2021/08/23 10:55:01;;;;;;;2.43;2.13;;;21.80;1.00;;;;;;5049809;28;20180;-57
2021/08/23 10:57:26;;;;;;;3.97;2.80;;;21.70;1.00;;;;;;5050866;28;20471;-56
2021/08/23 10:59:54;;;;;;;2.50;2.30;;;21.70;1.00;;;;;;5053745;28;20185;-56
2021/08/23 11:02:20;;;;;;;2.90;2.47;;;21.60;1.00;;;;;;5051609;28;20174;-55
2021/08/23 11:05:06;;;;;;;2.20;2.00;;;21.60;1.00;;;;;;5049719;28;20442;-56
2021/08/23 11:07:35;;;;;;;1.67;1.57;;;21.40;1.00;;;;;;5048343;28;20203;-56
2021/08/23 11:10:22;;;;;;;2.03;1.83;;;21.20;1.00;;;;;;5053650;28;20921;-57
2021/08/23 11:12:54;;;;;;;2.00;1.90;;;21.10;1.00;;;;;;5055195;28;20414;-57
2021/08/23 11:15:27;;;;;;;1.60;1.50;;;21.00;1.00;;;;;;5054488;28;20428;-56
2021/08/23 11:17:59;;;;;;;2.00;1.80;;;20.90;1.00;;;;;;5050639;28;20471;-57
2021/08/23 11:20:31;;;;;;;1.53;1.43;;;20.60;1.00;;;;;;5050657;28;20575;-54
2021/08/23 11:22:59;;;;;;;1.70;1.60;;;20.00;1.00;;;;;;5049510;28;20433;-56
2021/08/23 11:25:32;;;;;;;1.23;1.13;;;19.60;1.00;;;;;;5050669;28;20417;-55
2021/08/23 11:27:59;;;;;;;1.80;1.10;;;19.40;1.00;;;;;;5049280;28;20428;-55
2021/08/23 11:30:36;;;;;;;1.53;1.43;;;19.20;1.00;;;;;;5058612;28;20438;-55
2021/08/23 11:33:03;;;;;;;1.70;1.60;;;19.10;1.00;;;;;;5052216;28;20497;-54
2021/08/23 11:35:29;;;;;;;2.70;1.90;;;18.80;1.00;;;;;;5051975;28;20450;-55
2021/08/23 11:38:00;;;;;;;2.27;2.10;;;18.90;1.00;;;;;;5050253;28;20459;-57
2021/08/23 11:40:27;;;;;;;2.80;2.60;;;18.90;1.00;;;;;;5059313;28;20171;-56
2021/08/23 11:42:58;;;;;;;3.30;2.30;;;18.90;1.00;;;;;;5050365;28;20460;-55
2021/08/23 11:45:26;;;;;;;2.07;1.97;;;19.00;1.00;;;;;;5050442;28;20473;-57
2021/08/23 11:47:52;;;;;;;2.70;2.50;;;19.00;1.00;;;;;;5050502;28;20755;-57
2021/08/23 11:50:19;;;;;;;3.27;3.07;;;19.00;1.00;;;;;;5053854;28;20447;-56
2021/08/23 11:52:46;;;;;;;3.40;3.20;;;18.90;1.00;;;;;;5050296;28;20189;-56
2021/08/23 11:55:23;;;;;;;4.60;3.90;;;19.00;1.00;;;;;;5050356;28;20446;-56
2021/08/23 11:57:59;;;;;;;3.90;3.60;;;19.20;1.00;;;;;;5049494;28;20827;-55
2021/08/23 12:00:25;;;;;;;3.30;2.57;;;19.20;1.00;;;;;;5050208;28;20439;-56
2021/08/23 12:03:03;;;;;;;3.10;2.90;;;19.00;1.00;;;;;;5053034;28;20432;-56
2021/08/23 12:06:04;;;;;;;3.40;3.20;;;19.10;1.00;;;;;;5052340;28;20267;-57
2021/08/23 12:08:35;;;;;;;2.77;2.57;;;19.20;1.00;;;;;;5050195;28;21013;-56
2021/08/23 12:11:09;;;;;;;2.97;2.77;;;19.40;1.00;;;;;;5054688;28;20429;-56
2021/08/23 12:13:41;;;;;;;2.87;2.67;;;19.30;1.00;;;;;;5048026;28;20551;-63
2021/08/23 12:16:08;;;;;;;3.47;2.50;;;19.50;1.00;;;;;;5051596;28;20429;-57
2021/08/23 12:18:45;;;;;;;3.40;3.10;;;19.40;1.00;;;;;;5052435;28;20999;-58
2021/08/23 12:21:28;;;;;;;3.37;3.17;;;19.40;1.00;;;;;;5060990;28;20446;-58
2021/08/23 12:24:02;;;;;;;3.03;2.83;;;19.40;1.00;;;;;;5053878;28;20470;-58
2021/08/23 12:26:30;;;;;;;3.00;2.80;;;19.20;1.00;;;;;;5059455;28;20505;-57
2021/08/23 12:28:59;;;;;;;2.70;2.50;;;19.20;1.00;;;;;;5053433;28;20439;-58
2021/08/23 12:31:25;;;;;;;2.40;2.20;;;19.00;1.00;;;;;;5055829;28;20463;-58
2021/08/23 12:33:51;;;;;;;2.60;2.10;;;19.00;1.00;;;;;;5054907;28;20877;-58
2021/08/23 12:36:16;;;;;;;2.23;2.10;;;18.90;1.00;;;;;;5053604;28;20515;-58
2021/08/23 12:38:44;;;;;;;7.00;3.13;;;18.90;1.00;;;;;;5053642;28;20183;-58
2021/08/23 12:41:11;;;;;;;3.00;2.80;;;19.00;1.00;;;;;;5053615;28;20196;-57
2021/08/23 12:43:38;;;;;;;2.70;2.50;;;18.90;1.00;;;;;;5061485;28;20463;-58
2021/08/23 12:46:03;;;;;;;2.80;2.60;;;18.90;1.00;;;;;;5053814;28;20793;-59
2021/08/23 12:48:33;;;;;;;3.40;3.20;;;19.00;1.00;;;;;;5058569;28;20441;-58
2021/08/23 12:51:00;;;;;;;4.00;3.70;;;19.00;1.00;;;;;;5053350;28;20576;-57
2021/08/23 12:53:26;;;;;;;4.07;3.67;;;19.00;1.00;;;;;;5053517;28;20452;-59
2021/08/23 12:55:52;;;;;;;3.40;3.10;;;19.10;1.00;;;;;;5053061;28;20436;-57
2021/08/23 12:58:18;;;;;;;3.60;3.30;;;19.00;1.00;;;;;;5053170;28;20188;-57